sensor_id;sensor_type;location;lat;lon;timestamp;P1;durP1;ratioP1;P2;durP2;ratioP2
54464;SDS011;40374;49.480;20.016;2023-02-22T00:01:54;51.63;;;15.02;;
54464;SDS011;40374;49.480;20.016;2023-02-22T00:04:37;45.50;;;12.32;;
54464;SDS011;40374;49.480;20.016;2023-02-22T00:07:08;28.02;;;7.63;;
54464;SDS011;40374;49.480;20.016;2023-02-22T00:09:35;37.33;;;8.95;;
54464;SDS011;40374;49.480;20.016;2023-02-22T00:12:03;35.80;;;6.40;;
54464;SDS011;40374;49.480;20.016;2023-02-22T00:14:30;30.10;;;7.70;;
54464;SDS011;40374;49.480;20.016;2023-02-22T00:16:58;27.75;;;7.93;;
54464;SDS011;40374;49.480;20.016;2023-02-22T00:19:26;35.80;;;7.38;;
54464;SDS011;40374;49.480;20.016;2023-02-22T00:21:57;28.27;;;6.82;;
54464;SDS011;40374;49.480;20.016;2023-02-22T00:24:24;48.10;;;9.18;;
54464;SDS011;40374;49.480;20.016;2023-02-22T00:26:52;26.25;;;6.28;;
54464;SDS011;40374;49.480;20.016;2023-02-22T00:29:24;42.13;;;7.47;;
54464;SDS011;40374;49.480;20.016;2023-02-22T00:31:52;29.40;;;6.28;;
54464;SDS011;40374;49.480;20.016;2023-02-22T00:34:20;28.23;;;6.95;;
54464;SDS011;40374;49.480;20.016;2023-02-22T00:36:50;34.55;;;6.45;;
54464;SDS011;40374;49.480;20.016;2023-02-22T00:39:17;32.20;;;8.65;;
54464;SDS011;40374;49.480;20.016;2023-02-22T00:41:45;35.15;;;8.73;;
54464;SDS011;40374;49.480;20.016;2023-02-22T00:44:12;29.08;;;9.85;;
54464;SDS011;40374;49.480;20.016;2023-02-22T00:46:40;35.58;;;8.25;;
54464;SDS011;40374;49.480;20.016;2023-02-22T00:49:08;37.95;;;6.78;;
54464;SDS011;40374;49.480;20.016;2023-02-22T00:51:35;33.15;;;8.30;;
54464;SDS011;40374;49.480;20.016;2023-02-22T00:54:03;31.30;;;8.00;;
54464;SDS011;40374;49.480;20.016;2023-02-22T00:56:31;50.17;;;13.48;;
54464;SDS011;40374;49.480;20.016;2023-02-22T00:59:00;50.00;;;15.77;;
54464;SDS011;40374;49.480;20.016;2023-02-22T01:01:28;59.35;;;15.05;;
54464;SDS011;40374;49.480;20.016;2023-02-22T01:03:56;59.88;;;17.77;;
54464;SDS011;40374;49.480;20.016;2023-02-22T01:06:23;71.88;;;17.38;;
54464;SDS011;40374;49.480;20.016;2023-02-22T01:08:51;63.58;;;17.23;;
54464;SDS011;40374;49.480;20.016;2023-02-22T01:11:18;64.03;;;17.25;;
54464;SDS011;40374;49.480;20.016;2023-02-22T01:13:47;45.13;;;11.80;;
54464;SDS011;40374;49.480;20.016;2023-02-22T01:16:14;43.78;;;11.98;;
54464;SDS011;40374;49.480;20.016;2023-02-22T01:18:43;41.53;;;11.10;;
54464;SDS011;40374;49.480;20.016;2023-02-22T01:21:10;36.60;;;10.60;;
54464;SDS011;40374;49.480;20.016;2023-02-22T01:23:40;40.13;;;10.63;;
54464;SDS011;40374;49.480;20.016;2023-02-22T01:26:11;64.00;;;16.95;;
54464;SDS011;40374;49.480;20.016;2023-02-22T01:28:38;68.93;;;18.73;;
54464;SDS011;40374;49.480;20.016;2023-02-22T01:31:06;61.45;;;17.58;;
54464;SDS011;40374;49.480;20.016;2023-02-22T01:33:33;48.45;;;13.63;;
54464;SDS011;40374;49.480;20.016;2023-02-22T01:36:01;38.95;;;11.43;;
54464;SDS011;40374;49.480;20.016;2023-02-22T01:38:29;39.08;;;11.60;;
54464;SDS011;40374;49.480;20.016;2023-02-22T01:40:57;45.25;;;10.07;;
54464;SDS011;40374;49.480;20.016;2023-02-22T01:46:00;35.35;;;9.48;;
54464;SDS011;40374;49.480;20.016;2023-02-22T01:48:59;50.78;;;12.65;;
54464;SDS011;40374;49.480;20.016;2023-02-22T01:51:39;65.20;;;18.13;;
54464;SDS011;40374;49.480;20.016;2023-02-22T01:54:29;92.00;;;26.23;;
54464;SDS011;40374;49.480;20.016;2023-02-22T01:59:50;48.20;;;13.50;;
54464;SDS011;40374;49.480;20.016;2023-02-22T02:02:22;42.45;;;13.80;;
54464;SDS011;40374;49.480;20.016;2023-02-22T02:04:53;50.58;;;11.13;;
54464;SDS011;40374;49.480;20.016;2023-02-22T02:07:24;55.20;;;14.02;;
54464;SDS011;40374;49.480;20.016;2023-02-22T02:10:00;39.92;;;11.45;;
54464;SDS011;40374;49.480;20.016;2023-02-22T02:12:31;44.95;;;14.25;;
54464;SDS011;40374;49.480;20.016;2023-02-22T02:17:47;47.10;;;12.10;;
54464;SDS011;40374;49.480;20.016;2023-02-22T02:20:19;22.63;;;7.45;;
54464;SDS011;40374;49.480;20.016;2023-02-22T02:25:56;48.47;;;11.27;;
54464;SDS011;40374;49.480;20.016;2023-02-22T02:28:50;32.13;;;9.90;;
54464;SDS011;40374;49.480;20.016;2023-02-22T02:42:23;28.23;;;7.63;;
54464;SDS011;40374;49.480;20.016;2023-02-22T02:45:00;32.35;;;8.65;;
54464;SDS011;40374;49.480;20.016;2023-02-22T02:47:36;29.58;;;8.98;;
54464;SDS011;40374;49.480;20.016;2023-02-22T02:50:09;32.63;;;10.90;;
54464;SDS011;40374;49.480;20.016;2023-02-22T02:52:41;29.67;;;8.85;;
54464;SDS011;40374;49.480;20.016;2023-02-22T02:55:11;22.02;;;6.25;;
54464;SDS011;40374;49.480;20.016;2023-02-22T02:57:40;39.30;;;10.50;;
54464;SDS011;40374;49.480;20.016;2023-02-22T03:00:08;37.80;;;11.48;;
54464;SDS011;40374;49.480;20.016;2023-02-22T03:05:46;27.33;;;7.95;;
54464;SDS011;40374;49.480;20.016;2023-02-22T03:11:14;23.50;;;8.60;;
54464;SDS011;40374;49.480;20.016;2023-02-22T03:13:49;32.10;;;12.00;;
54464;SDS011;40374;49.480;20.016;2023-02-22T03:16:45;20.67;;;8.85;;
54464;SDS011;40374;49.480;20.016;2023-02-22T03:21:55;24.48;;;9.27;;
54464;SDS011;40374;49.480;20.016;2023-02-22T03:24:32;19.23;;;7.40;;
54464;SDS011;40374;49.480;20.016;2023-02-22T03:27:13;38.08;;;11.45;;
54464;SDS011;40374;49.480;20.016;2023-02-22T03:29:54;35.95;;;11.10;;
54464;SDS011;40374;49.480;20.016;2023-02-22T03:32:32;31.27;;;10.93;;
54464;SDS011;40374;49.480;20.016;2023-02-22T03:35:12;29.20;;;11.25;;
54464;SDS011;40374;49.480;20.016;2023-02-22T03:37:45;21.95;;;8.25;;
54464;SDS011;40374;49.480;20.016;2023-02-22T03:40:18;23.15;;;7.78;;
54464;SDS011;40374;49.480;20.016;2023-02-22T03:42:56;27.75;;;8.75;;
54464;SDS011;40374;49.480;20.016;2023-02-22T03:45:28;34.63;;;9.75;;
54464;SDS011;40374;49.480;20.016;2023-02-22T03:48:02;28.00;;;9.38;;
54464;SDS011;40374;49.480;20.016;2023-02-22T03:50:36;37.83;;;13.32;;
54464;SDS011;40374;49.480;20.016;2023-02-22T03:53:06;38.00;;;12.32;;
54464;SDS011;40374;49.480;20.016;2023-02-22T03:55:36;43.63;;;15.38;;
54464;SDS011;40374;49.480;20.016;2023-02-22T03:58:05;53.90;;;17.73;;
54464;SDS011;40374;49.480;20.016;2023-02-22T04:00:38;54.55;;;17.38;;
54464;SDS011;40374;49.480;20.016;2023-02-22T04:03:10;45.67;;;17.35;;
54464;SDS011;40374;49.480;20.016;2023-02-22T04:05:38;43.42;;;17.30;;
54464;SDS011;40374;49.480;20.016;2023-02-22T04:08:05;41.70;;;15.52;;
54464;SDS011;40374;49.480;20.016;2023-02-22T04:10:33;43.75;;;15.43;;
54464;SDS011;40374;49.480;20.016;2023-02-22T04:13:03;45.08;;;14.68;;
54464;SDS011;40374;49.480;20.016;2023-02-22T04:15:35;47.17;;;16.80;;
54464;SDS011;40374;49.480;20.016;2023-02-22T04:18:04;35.03;;;13.77;;
54464;SDS011;40374;49.480;20.016;2023-02-22T04:20:32;37.78;;;15.15;;
54464;SDS011;40374;49.480;20.016;2023-02-22T04:23:08;34.85;;;11.55;;
54464;SDS011;40374;49.480;20.016;2023-02-22T04:25:38;37.72;;;14.32;;
54464;SDS011;40374;49.480;20.016;2023-02-22T04:31:05;32.42;;;15.02;;
54464;SDS011;40374;49.480;20.016;2023-02-22T04:33:32;37.45;;;15.40;;
54464;SDS011;40374;49.480;20.016;2023-02-22T04:36:00;49.85;;;16.52;;
54464;SDS011;40374;49.480;20.016;2023-02-22T04:38:30;45.03;;;15.77;;
54464;SDS011;40374;49.480;20.016;2023-02-22T04:40:59;30.67;;;11.85;;
54464;SDS011;40374;49.480;20.016;2023-02-22T04:43:26;39.90;;;14.38;;
54464;SDS011;40374;49.480;20.016;2023-02-22T04:46:02;49.35;;;13.50;;
54464;SDS011;40374;49.480;20.016;2023-02-22T04:48:30;38.80;;;12.95;;
54464;SDS011;40374;49.480;20.016;2023-02-22T04:50:58;30.55;;;9.57;;
54464;SDS011;40374;49.480;20.016;2023-02-22T04:53:27;41.38;;;11.00;;
54464;SDS011;40374;49.480;20.016;2023-02-22T04:55:57;51.55;;;10.55;;
54464;SDS011;40374;49.480;20.016;2023-02-22T04:58:25;25.00;;;8.32;;
54464;SDS011;40374;49.480;20.016;2023-02-22T05:00:53;33.17;;;8.90;;
54464;SDS011;40374;49.480;20.016;2023-02-22T05:03:20;30.17;;;9.80;;
54464;SDS011;40374;49.480;20.016;2023-02-22T05:05:48;22.85;;;8.43;;
54464;SDS011;40374;49.480;20.016;2023-02-22T05:08:17;41.13;;;13.98;;
54464;SDS011;40374;49.480;20.016;2023-02-22T05:10:45;59.30;;;18.42;;
54464;SDS011;40374;49.480;20.016;2023-02-22T05:13:12;47.33;;;14.80;;
54464;SDS011;40374;49.480;20.016;2023-02-22T05:15:40;48.72;;;12.20;;
54464;SDS011;40374;49.480;20.016;2023-02-22T05:18:07;56.15;;;15.77;;
54464;SDS011;40374;49.480;20.016;2023-02-22T05:20:35;69.50;;;22.65;;
54464;SDS011;40374;49.480;20.016;2023-02-22T05:23:02;81.05;;;27.35;;
54464;SDS011;40374;49.480;20.016;2023-02-22T05:25:32;68.82;;;27.98;;
54464;SDS011;40374;49.480;20.016;2023-02-22T05:28:00;65.47;;;23.00;;
54464;SDS011;40374;49.480;20.016;2023-02-22T05:30:31;58.83;;;23.60;;
54464;SDS011;40374;49.480;20.016;2023-02-22T05:33:00;68.40;;;25.23;;
54464;SDS011;40374;49.480;20.016;2023-02-22T05:35:28;86.05;;;34.75;;
54464;SDS011;40374;49.480;20.016;2023-02-22T05:37:56;108.80;;;48.08;;
54464;SDS011;40374;49.480;20.016;2023-02-22T05:40:26;88.10;;;39.90;;
54464;SDS011;40374;49.480;20.016;2023-02-22T05:42:54;64.53;;;25.65;;
54464;SDS011;40374;49.480;20.016;2023-02-22T05:45:24;47.58;;;19.58;;
54464;SDS011;40374;49.480;20.016;2023-02-22T05:47:53;62.67;;;18.02;;
54464;SDS011;40374;49.480;20.016;2023-02-22T05:50:21;67.22;;;23.05;;
54464;SDS011;40374;49.480;20.016;2023-02-22T05:52:49;64.53;;;26.85;;
54464;SDS011;40374;49.480;20.016;2023-02-22T05:55:17;37.95;;;15.68;;
54464;SDS011;40374;49.480;20.016;2023-02-22T05:57:46;49.13;;;15.25;;
54464;SDS011;40374;49.480;20.016;2023-02-22T06:00:18;50.10;;;20.00;;
54464;SDS011;40374;49.480;20.016;2023-02-22T06:03:07;50.63;;;19.33;;
54464;SDS011;40374;49.480;20.016;2023-02-22T06:05:38;49.45;;;16.50;;
54464;SDS011;40374;49.480;20.016;2023-02-22T06:08:06;49.00;;;16.95;;
54464;SDS011;40374;49.480;20.016;2023-02-22T06:10:34;44.03;;;16.42;;
54464;SDS011;40374;49.480;20.016;2023-02-22T06:13:02;47.28;;;17.48;;
54464;SDS011;40374;49.480;20.016;2023-02-22T06:15:31;50.20;;;16.00;;
54464;SDS011;40374;49.480;20.016;2023-02-22T06:17:58;66.93;;;19.55;;
54464;SDS011;40374;49.480;20.016;2023-02-22T06:20:27;57.78;;;17.38;;
54464;SDS011;40374;49.480;20.016;2023-02-22T06:22:56;54.10;;;15.75;;
54464;SDS011;40374;49.480;20.016;2023-02-22T06:25:28;63.42;;;24.77;;
54464;SDS011;40374;49.480;20.016;2023-02-22T06:28:00;59.70;;;24.08;;
54464;SDS011;40374;49.480;20.016;2023-02-22T06:30:28;57.80;;;21.48;;
54464;SDS011;40374;49.480;20.016;2023-02-22T06:32:56;54.30;;;17.80;;
54464;SDS011;40374;49.480;20.016;2023-02-22T06:35:24;68.00;;;21.65;;
54464;SDS011;40374;49.480;20.016;2023-02-22T06:37:51;46.65;;;18.10;;
54464;SDS011;40374;49.480;20.016;2023-02-22T06:40:19;48.47;;;16.52;;
54464;SDS011;40374;49.480;20.016;2023-02-22T06:42:47;41.63;;;13.70;;
54464;SDS011;40374;49.480;20.016;2023-02-22T06:45:15;45.40;;;13.75;;
54464;SDS011;40374;49.480;20.016;2023-02-22T06:47:44;42.58;;;13.05;;
54464;SDS011;40374;49.480;20.016;2023-02-22T06:50:19;37.45;;;9.27;;
54464;SDS011;40374;49.480;20.016;2023-02-22T06:52:46;34.53;;;10.50;;
54464;SDS011;40374;49.480;20.016;2023-02-22T06:55:17;39.25;;;13.55;;
54464;SDS011;40374;49.480;20.016;2023-02-22T06:57:46;42.10;;;12.70;;
54464;SDS011;40374;49.480;20.016;2023-02-22T07:00:14;35.83;;;10.73;;
54464;SDS011;40374;49.480;20.016;2023-02-22T07:02:45;38.20;;;9.20;;
54464;SDS011;40374;49.480;20.016;2023-02-22T07:05:14;34.22;;;9.43;;
54464;SDS011;40374;49.480;20.016;2023-02-22T07:07:44;25.55;;;7.35;;
54464;SDS011;40374;49.480;20.016;2023-02-22T07:10:19;49.50;;;13.80;;
54464;SDS011;40374;49.480;20.016;2023-02-22T07:12:49;45.40;;;9.73;;
54464;SDS011;40374;49.480;20.016;2023-02-22T07:15:19;33.88;;;10.95;;
54464;SDS011;40374;49.480;20.016;2023-02-22T07:17:49;34.10;;;11.25;;
54464;SDS011;40374;49.480;20.016;2023-02-22T07:20:18;38.00;;;9.75;;
54464;SDS011;40374;49.480;20.016;2023-02-22T07:22:47;36.22;;;12.23;;
54464;SDS011;40374;49.480;20.016;2023-02-22T07:25:15;43.25;;;13.20;;
54464;SDS011;40374;49.480;20.016;2023-02-22T07:27:42;26.42;;;10.77;;
54464;SDS011;40374;49.480;20.016;2023-02-22T07:30:16;35.72;;;12.48;;
54464;SDS011;40374;49.480;20.016;2023-02-22T07:32:52;29.65;;;11.55;;
54464;SDS011;40374;49.480;20.016;2023-02-22T07:35:23;39.15;;;13.23;;
54464;SDS011;40374;49.480;20.016;2023-02-22T07:37:53;48.65;;;11.80;;
54464;SDS011;40374;49.480;20.016;2023-02-22T07:40:22;40.40;;;12.25;;
54464;SDS011;40374;49.480;20.016;2023-02-22T07:45:24;38.38;;;12.77;;
54464;SDS011;40374;49.480;20.016;2023-02-22T07:47:53;38.17;;;14.05;;
54464;SDS011;40374;49.480;20.016;2023-02-22T07:50:22;35.10;;;12.73;;
54464;SDS011;40374;49.480;20.016;2023-02-22T07:52:53;39.67;;;12.57;;
54464;SDS011;40374;49.480;20.016;2023-02-22T07:55:22;36.42;;;13.27;;
54464;SDS011;40374;49.480;20.016;2023-02-22T07:57:53;33.20;;;11.27;;
54464;SDS011;40374;49.480;20.016;2023-02-22T08:02:59;34.00;;;10.57;;
54464;SDS011;40374;49.480;20.016;2023-02-22T08:05:29;37.20;;;11.75;;
54464;SDS011;40374;49.480;20.016;2023-02-22T08:07:58;45.75;;;11.20;;
54464;SDS011;40374;49.480;20.016;2023-02-22T08:10:25;31.23;;;10.43;;
54464;SDS011;40374;49.480;20.016;2023-02-22T08:12:53;37.85;;;10.40;;
54464;SDS011;40374;49.480;20.016;2023-02-22T08:15:23;101.70;;;38.92;;
54464;SDS011;40374;49.480;20.016;2023-02-22T08:17:54;41.33;;;11.77;;
54464;SDS011;40374;49.480;20.016;2023-02-22T08:20:26;117.28;;;66.72;;
54464;SDS011;40374;49.480;20.016;2023-02-22T08:22:55;96.13;;;41.35;;
54464;SDS011;40374;49.480;20.016;2023-02-22T08:25:24;85.18;;;32.78;;
54464;SDS011;40374;49.480;20.016;2023-02-22T08:27:57;25.83;;;7.00;;
54464;SDS011;40374;49.480;20.016;2023-02-22T08:30:28;43.20;;;9.38;;
54464;SDS011;40374;49.480;20.016;2023-02-22T08:32:58;24.08;;;5.60;;
54464;SDS011;40374;49.480;20.016;2023-02-22T08:35:25;21.38;;;5.97;;
54464;SDS011;40374;49.480;20.016;2023-02-22T08:37:55;21.30;;;6.00;;
54464;SDS011;40374;49.480;20.016;2023-02-22T08:40:25;23.00;;;5.00;;
54464;SDS011;40374;49.480;20.016;2023-02-22T08:42:54;16.25;;;2.90;;
54464;SDS011;40374;49.480;20.016;2023-02-22T08:45:22;20.42;;;3.30;;
54464;SDS011;40374;49.480;20.016;2023-02-22T08:47:50;14.75;;;4.30;;
54464;SDS011;40374;49.480;20.016;2023-02-22T08:50:20;16.05;;;3.03;;
54464;SDS011;40374;49.480;20.016;2023-02-22T08:52:49;19.85;;;4.00;;
54464;SDS011;40374;49.480;20.016;2023-02-22T08:55:21;18.15;;;3.97;;
54464;SDS011;40374;49.480;20.016;2023-02-22T08:57:50;23.15;;;4.47;;
54464;SDS011;40374;49.480;20.016;2023-02-22T09:00:21;23.73;;;3.72;;
54464;SDS011;40374;49.480;20.016;2023-02-22T09:02:51;13.52;;;3.53;;
54464;SDS011;40374;49.480;20.016;2023-02-22T09:05:19;14.55;;;4.75;;
54464;SDS011;40374;49.480;20.016;2023-02-22T09:07:47;14.85;;;3.10;;
54464;SDS011;40374;49.480;20.016;2023-02-22T09:10:19;19.55;;;3.10;;
54464;SDS011;40374;49.480;20.016;2023-02-22T09:12:52;17.13;;;3.75;;
54464;SDS011;40374;49.480;20.016;2023-02-22T09:15:24;15.05;;;3.55;;
54464;SDS011;40374;49.480;20.016;2023-02-22T09:17:52;15.32;;;3.25;;
54464;SDS011;40374;49.480;20.016;2023-02-22T09:20:20;16.42;;;3.83;;
54464;SDS011;40374;49.480;20.016;2023-02-22T09:22:49;16.80;;;3.05;;
54464;SDS011;40374;49.480;20.016;2023-02-22T09:25:17;28.55;;;6.25;;
54464;SDS011;40374;49.480;20.016;2023-02-22T09:27:48;18.25;;;3.47;;
54464;SDS011;40374;49.480;20.016;2023-02-22T09:30:19;19.15;;;3.85;;
54464;SDS011;40374;49.480;20.016;2023-02-22T09:33:02;19.98;;;4.30;;
54464;SDS011;40374;49.480;20.016;2023-02-22T09:35:38;21.88;;;4.70;;
54464;SDS011;40374;49.480;20.016;2023-02-22T09:38:13;19.88;;;4.13;;
54464;SDS011;40374;49.480;20.016;2023-02-22T09:40:46;13.63;;;4.05;;
54464;SDS011;40374;49.480;20.016;2023-02-22T09:51:20;20.15;;;4.13;;
54464;SDS011;40374;49.480;20.016;2023-02-22T09:53:48;15.70;;;3.78;;
54464;SDS011;40374;49.480;20.016;2023-02-22T09:56:20;21.10;;;4.15;;
54464;SDS011;40374;49.480;20.016;2023-02-22T09:58:50;21.90;;;3.60;;
54464;SDS011;40374;49.480;20.016;2023-02-22T10:01:23;15.23;;;4.03;;
54464;SDS011;40374;49.480;20.016;2023-02-22T10:04:30;14.23;;;4.85;;
54464;SDS011;40374;49.480;20.016;2023-02-22T10:07:19;22.45;;;4.65;;
54464;SDS011;40374;49.480;20.016;2023-02-22T10:09:54;23.60;;;5.47;;
54464;SDS011;40374;49.480;20.016;2023-02-22T10:21:05;22.48;;;4.53;;
54464;SDS011;40374;49.480;20.016;2023-02-22T10:23:55;16.98;;;4.18;;
54464;SDS011;40374;49.480;20.016;2023-02-22T10:26:32;14.07;;;4.97;;
54464;SDS011;40374;49.480;20.016;2023-02-22T10:29:09;22.20;;;5.03;;
54464;SDS011;40374;49.480;20.016;2023-02-22T10:31:41;17.52;;;3.70;;
54464;SDS011;40374;49.480;20.016;2023-02-22T10:37:36;23.55;;;4.57;;
54464;SDS011;40374;49.480;20.016;2023-02-22T10:40:25;22.55;;;5.78;;
54464;SDS011;40374;49.480;20.016;2023-02-22T10:43:02;23.73;;;5.60;;
54464;SDS011;40374;49.480;20.016;2023-02-22T10:45:32;17.83;;;5.28;;
54464;SDS011;40374;49.480;20.016;2023-02-22T10:48:09;25.08;;;6.07;;
54464;SDS011;40374;49.480;20.016;2023-02-22T10:50:40;22.02;;;5.43;;
54464;SDS011;40374;49.480;20.016;2023-02-22T10:53:09;21.50;;;6.07;;
54464;SDS011;40374;49.480;20.016;2023-02-22T10:56:03;26.38;;;6.40;;
54464;SDS011;40374;49.480;20.016;2023-02-22T10:58:55;21.15;;;6.20;;
54464;SDS011;40374;49.480;20.016;2023-02-22T11:06:45;19.00;;;3.92;;
54464;SDS011;40374;49.480;20.016;2023-02-22T11:09:17;15.18;;;3.63;;
54464;SDS011;40374;49.480;20.016;2023-02-22T11:12:05;15.73;;;3.17;;
54464;SDS011;40374;49.480;20.016;2023-02-22T11:14:37;17.05;;;3.20;;
54464;SDS011;40374;49.480;20.016;2023-02-22T11:17:05;19.15;;;3.47;;
54464;SDS011;40374;49.480;20.016;2023-02-22T11:19:34;11.15;;;3.53;;
54464;SDS011;40374;49.480;20.016;2023-02-22T11:24:31;23.15;;;4.43;;
54464;SDS011;40374;49.480;20.016;2023-02-22T11:32:49;14.85;;;4.18;;
54464;SDS011;40374;49.480;20.016;2023-02-22T11:35:30;15.25;;;4.03;;
54464;SDS011;40374;49.480;20.016;2023-02-22T11:38:14;21.25;;;4.45;;
54464;SDS011;40374;49.480;20.016;2023-02-22T11:40:44;19.70;;;5.10;;
54464;SDS011;40374;49.480;20.016;2023-02-22T11:43:16;13.57;;;3.90;;
54464;SDS011;40374;49.480;20.016;2023-02-22T11:46:45;19.10;;;4.45;;
54464;SDS011;40374;49.480;20.016;2023-02-22T11:51:55;11.30;;;3.67;;
54464;SDS011;40374;49.480;20.016;2023-02-22T11:57:31;13.35;;;3.92;;
54464;SDS011;40374;49.480;20.016;2023-02-22T12:16:41;14.10;;;3.08;;
54464;SDS011;40374;49.480;20.016;2023-02-22T12:19:33;17.73;;;3.88;;
54464;SDS011;40374;49.480;20.016;2023-02-22T12:22:18;13.15;;;3.78;;
54464;SDS011;40374;49.480;20.016;2023-02-22T12:24:56;15.23;;;3.80;;
54464;SDS011;40374;49.480;20.016;2023-02-22T12:27:46;19.15;;;3.60;;
54464;SDS011;40374;49.480;20.016;2023-02-22T12:30:23;19.20;;;4.13;;
54464;SDS011;40374;49.480;20.016;2023-02-22T12:32:59;21.30;;;4.68;;
54464;SDS011;40374;49.480;20.016;2023-02-22T12:35:33;12.35;;;3.42;;
54464;SDS011;40374;49.480;20.016;2023-02-22T12:40:40;16.35;;;3.72;;
54464;SDS011;40374;49.480;20.016;2023-02-22T12:46:12;11.43;;;3.25;;
54464;SDS011;40374;49.480;20.016;2023-02-22T12:57:19;10.80;;;3.72;;
54464;SDS011;40374;49.480;20.016;2023-02-22T12:59:52;21.38;;;4.00;;
54464;SDS011;40374;49.480;20.016;2023-02-22T13:02:27;15.90;;;4.45;;
54464;SDS011;40374;49.480;20.016;2023-02-22T13:05:02;17.27;;;3.50;;
54464;SDS011;40374;49.480;20.016;2023-02-22T13:12:52;15.85;;;5.70;;
54464;SDS011;40374;49.480;20.016;2023-02-22T13:15:29;15.55;;;3.97;;
54464;SDS011;40374;49.480;20.016;2023-02-22T13:26:37;19.02;;;4.53;;
54464;SDS011;40374;49.480;20.016;2023-02-22T13:54:16;18.65;;;3.95;;
54464;SDS011;40374;49.480;20.016;2023-02-22T13:56:49;21.67;;;4.15;;
54464;SDS011;40374;49.480;20.016;2023-02-22T13:59:34;25.60;;;5.88;;
54464;SDS011;40374;49.480;20.016;2023-02-22T14:02:04;22.67;;;4.63;;
54464;SDS011;40374;49.480;20.016;2023-02-22T14:04:36;17.20;;;4.60;;
54464;SDS011;40374;49.480;20.016;2023-02-22T14:07:50;17.58;;;4.90;;
54464;SDS011;40374;49.480;20.016;2023-02-22T14:10:00;22.42;;;5.28;;
54464;SDS011;40374;49.480;20.016;2023-02-22T14:17:57;20.33;;;5.45;;
54464;SDS011;40374;49.480;20.016;2023-02-22T14:20:36;21.10;;;6.00;;
54464;SDS011;40374;49.480;20.016;2023-02-22T14:31:12;26.30;;;7.50;;
54464;SDS011;40374;49.480;20.016;2023-02-22T14:39:32;27.30;;;8.10;;
54464;SDS011;40374;49.480;20.016;2023-02-22T14:42:05;28.38;;;9.57;;
54464;SDS011;40374;49.480;20.016;2023-02-22T14:55:55;23.48;;;6.00;;
54464;SDS011;40374;49.480;20.016;2023-02-22T15:01:37;39.72;;;10.20;;
54464;SDS011;40374;49.480;20.016;2023-02-22T15:04:28;33.90;;;9.63;;
54464;SDS011;40374;49.480;20.016;2023-02-22T15:07:00;34.13;;;9.70;;
54464;SDS011;40374;49.480;20.016;2023-02-22T15:09:46;39.17;;;9.57;;
54464;SDS011;40374;49.480;20.016;2023-02-22T15:12:23;33.42;;;11.15;;
54464;SDS011;40374;49.480;20.016;2023-02-22T15:17:56;35.35;;;9.27;;
54464;SDS011;40374;49.480;20.016;2023-02-22T15:20:25;26.92;;;8.02;;
54464;SDS011;40374;49.480;20.016;2023-02-22T15:22:57;22.88;;;7.55;;
54464;SDS011;40374;49.480;20.016;2023-02-22T15:25:27;30.20;;;7.15;;
54464;SDS011;40374;49.480;20.016;2023-02-22T15:28:01;23.75;;;6.90;;
54464;SDS011;40374;49.480;20.016;2023-02-22T15:30:31;28.52;;;8.82;;
54464;SDS011;40374;49.480;20.016;2023-02-22T15:33:14;30.60;;;7.82;;
54464;SDS011;40374;49.480;20.016;2023-02-22T15:35:44;26.20;;;6.22;;
54464;SDS011;40374;49.480;20.016;2023-02-22T15:38:20;34.53;;;8.83;;
54464;SDS011;40374;49.480;20.016;2023-02-22T15:41:01;38.30;;;8.15;;
54464;SDS011;40374;49.480;20.016;2023-02-22T15:43:31;31.42;;;9.45;;
54464;SDS011;40374;49.480;20.016;2023-02-22T15:46:00;28.63;;;8.95;;
54464;SDS011;40374;49.480;20.016;2023-02-22T15:48:28;33.60;;;9.40;;
54464;SDS011;40374;49.480;20.016;2023-02-22T15:50:59;34.45;;;9.40;;
54464;SDS011;40374;49.480;20.016;2023-02-22T15:53:41;31.65;;;8.27;;
54464;SDS011;40374;49.480;20.016;2023-02-22T15:56:13;39.53;;;10.98;;
54464;SDS011;40374;49.480;20.016;2023-02-22T15:58:44;46.55;;;14.88;;
54464;SDS011;40374;49.480;20.016;2023-02-22T16:01:15;51.88;;;21.42;;
54464;SDS011;40374;49.480;20.016;2023-02-22T16:06:35;73.38;;;25.98;;
54464;SDS011;40374;49.480;20.016;2023-02-22T16:11:35;58.10;;;20.08;;
54464;SDS011;40374;49.480;20.016;2023-02-22T16:20:00;62.42;;;24.70;;
54464;SDS011;40374;49.480;20.016;2023-02-22T16:22:49;77.85;;;24.98;;
54464;SDS011;40374;49.480;20.016;2023-02-22T16:32:53;146.70;;;53.60;;
54464;SDS011;40374;49.480;20.016;2023-02-22T16:35:26;111.70;;;46.03;;
54464;SDS011;40374;49.480;20.016;2023-02-22T16:37:57;137.15;;;55.38;;
54464;SDS011;40374;49.480;20.016;2023-02-22T16:40:29;125.63;;;48.35;;
54464;SDS011;40374;49.480;20.016;2023-02-22T16:43:05;108.88;;;39.60;;
54464;SDS011;40374;49.480;20.016;2023-02-22T16:45:36;83.13;;;30.50;;
54464;SDS011;40374;49.480;20.016;2023-02-22T16:48:12;82.03;;;32.40;;
54464;SDS011;40374;49.480;20.016;2023-02-22T16:50:58;114.00;;;39.40;;
54464;SDS011;40374;49.480;20.016;2023-02-22T16:53:29;94.38;;;39.92;;
54464;SDS011;40374;49.480;20.016;2023-02-22T16:58:35;90.95;;;33.92;;
54464;SDS011;40374;49.480;20.016;2023-02-22T17:01:05;96.65;;;29.33;;
54464;SDS011;40374;49.480;20.016;2023-02-22T17:03:33;50.65;;;15.48;;
54464;SDS011;40374;49.480;20.016;2023-02-22T17:06:00;53.20;;;15.60;;
54464;SDS011;40374;49.480;20.016;2023-02-22T17:08:28;68.10;;;22.50;;
54464;SDS011;40374;49.480;20.016;2023-02-22T17:10:56;60.75;;;21.05;;
54464;SDS011;40374;49.480;20.016;2023-02-22T17:13:26;77.45;;;20.00;;
54464;SDS011;40374;49.480;20.016;2023-02-22T17:15:55;57.67;;;18.15;;
54464;SDS011;40374;49.480;20.016;2023-02-22T17:18:24;75.97;;;24.10;;
54464;SDS011;40374;49.480;20.016;2023-02-22T17:20:55;329.67;;;89.63;;
54464;SDS011;40374;49.480;20.016;2023-02-22T17:23:23;151.90;;;44.55;;
54464;SDS011;40374;49.480;20.016;2023-02-22T17:25:51;101.82;;;32.03;;
54464;SDS011;40374;49.480;20.016;2023-02-22T17:28:29;85.05;;;30.73;;
54464;SDS011;40374;49.480;20.016;2023-02-22T17:30:57;82.68;;;29.75;;
54464;SDS011;40374;49.480;20.016;2023-02-22T17:33:29;177.18;;;51.80;;
54464;SDS011;40374;49.480;20.016;2023-02-22T17:36:00;148.80;;;44.65;;
54464;SDS011;40374;49.480;20.016;2023-02-22T17:38:28;128.82;;;40.40;;
54464;SDS011;40374;49.480;20.016;2023-02-22T17:40:57;98.55;;;29.27;;
54464;SDS011;40374;49.480;20.016;2023-02-22T17:43:26;83.93;;;27.63;;
54464;SDS011;40374;49.480;20.016;2023-02-22T17:45:54;79.90;;;26.23;;
54464;SDS011;40374;49.480;20.016;2023-02-22T17:48:23;81.45;;;26.02;;
54464;SDS011;40374;49.480;20.016;2023-02-22T17:50:51;94.28;;;34.88;;
54464;SDS011;40374;49.480;20.016;2023-02-22T17:53:20;78.95;;;27.65;;
54464;SDS011;40374;49.480;20.016;2023-02-22T17:55:51;173.38;;;45.08;;
54464;SDS011;40374;49.480;20.016;2023-02-22T17:58:19;233.45;;;68.07;;
54464;SDS011;40374;49.480;20.016;2023-02-22T18:00:48;286.08;;;81.95;;
54464;SDS011;40374;49.480;20.016;2023-02-22T18:03:22;126.72;;;44.50;;
54464;SDS011;40374;49.480;20.016;2023-02-22T18:06:40;154.32;;;53.03;;
54464;SDS011;40374;49.480;20.016;2023-02-22T18:09:48;212.90;;;65.68;;